Time;durP1;ratioP1;P1;durP2;ratioP2;P2;SDS_P1;SDS_P2;PMS_P1;PMS_P2;Temp;Humidity;BMP_temperature;BMP_pressure;BME280_temperature;BME280_humidity;BME280_pressure;Samples;Min_cycle;Max_cycle;Signal;HPM_P1;HPM_P2
2022/05/16 00:00:21;;;;;;;23.80;3.60;;;;;;;9.75;52.05;99397.42;106239;1272;22569;-85
2022/05/16 00:03:23;;;;;;;30.40;4.10;;;;;;;9.65;52.11;99402.00;106316;1274;25275;-79
2022/05/16 00:06:27;;;;;;;;;;;;;;;;;;;;;
2022/05/16 00:09:24;;;;;;;24.80;3.90;;;;;;;9.60;52.23;99407.63;106054;1274;22636;-86
2022/05/16 00:12:31;;;;;;;42.30;4.70;;;;;;;9.56;52.31;99405.75;106571;1274;22546;-79
2022/05/16 00:15:16;;;;;;;36.20;4.80;;;;;;;9.53;52.49;99404.51;106262;1274;24601;-85
2022/05/16 00:18:40;;;;;;;27.50;5.70;;;;;;;9.50;52.86;99407.92;106334;1274;24399;-82
2022/05/16 00:21:41;;;;;;;;;;;;;;;;;;;;;
2022/05/16 00:27:53;;;;;;;24.00;4.90;;;;;;;9.44;53.08;99405.45;106285;1274;22570;-80
2022/05/16 00:31:39;;;;;;;;;;;;;;;;;;;;;
2022/05/16 00:34:31;;;;;;;23.20;5.40;;;;;;;9.35;53.08;99405.46;105076;1285;24225;-80
2022/05/16 00:37:44;;;;;;;22.30;5.00;;;;;;;9.29;53.19;99407.11;104819;1285;22620;-79
2022/05/16 00:40:55;;;;;;;19.40;5.30;;;;;;;9.25;53.15;99408.76;104562;1285;22556;-79
2022/05/16 00:44:26;;;;;;;;;;;;;;;;;;;;;
2022/05/16 00:47:54;;;;;;;25.50;5.80;;;;;;;9.21;53.58;99405.42;104184;1294;22748;-78
2022/05/16 00:51:04;;;;;;;;;;;;;;;;;;;;;
2022/05/16 00:54:17;;;;;;;22.10;5.40;;;;;;;9.13;53.72;99409.12;104253;1291;22591;-80
2022/05/16 00:58:02;;;;;;;21.40;5.30;;;;;;;9.06;54.02;99412.91;103633;1300;25280;-80
2022/05/16 01:05:08;;;;;;;;;;;;;;;;;;;;;
2022/05/16 01:08:46;;;;;;;18.10;5.80;;;;;;;9.16;54.44;99408.74;103399;1306;23954;-79
2022/05/16 01:12:24;;;;;;;;;;;;;;;;;;;;;
2022/05/16 01:16:22;;;;;;;;;;;;;;;;;;;;;
2022/05/16 01:20:23;;;;;;;12.80;4.10;;;;;;;8.89;54.76;99416.41;103335;1306;22713;-80
2022/05/16 01:24:07;;;;;;;12.50;4.10;;;;;;;8.85;54.94;99423.92;103231;1306;24370;-81
2022/05/16 01:30:31;;;;;;;11.20;2.60;;;;;;;8.81;55.03;99414.63;101951;1317;25554;-80
2022/05/16 01:33:37;;;;;;;13.80;3.50;;;;;;;8.79;55.16;99409.41;101827;1318;23990;-79
2022/05/16 01:37:13;;;;;;;;;;;;;;;;;;;;;
2022/05/16 01:40:50;;;;;;;23.30;3.10;;;;;;;8.70;54.63;99417.52;102518;1315;22651;-86
2022/05/16 01:43:55;;;;;;;25.70;4.20;;;;;;;8.71;55.18;99422.61;102049;1321;24479;-81
2022/05/16 01:47:03;;;;;;;25.10;4.90;;;;;;;8.65;55.28;99426.73;102584;1315;22582;-82
2022/05/16 01:50:31;;;;;;;17.80;3.50;;;;;;;8.60;55.06;99429.70;103289;1306;22740;-82
2022/05/16 01:53:27;;;;;;;17.30;3.60;;;;;;;8.63;55.16;99433.05;103135;1306;25477;-80
2022/05/16 01:56:25;;;;;;;;;;;;;;;;;;;;;
2022/05/16 02:00:06;;;;;;;18.50;3.40;;;;;;;8.58;55.31;99429.05;103352;1300;24497;-83
2022/05/16 02:04:18;;;;;;;14.20;2.80;;;;;;;8.60;55.56;99430.55;103957;1297;24463;-83
2022/05/16 02:06:59;;;;;;;15.50;3.20;;;;;;;8.59;55.82;99435.78;103979;1294;25251;-83
2022/05/16 02:10:27;;;;;;;10.00;2.80;;;;;;;8.51;55.68;99436.42;104187;1294;22668;-85
2022/05/16 02:14:12;;;;;;;22.40;3.30;;;;;;;8.40;55.72;99437.92;104157;1294;22574;-83
2022/05/16 02:17:58;;;;;;;18.30;3.60;;;;;;;8.35;55.93;99436.95;103894;1300;25333;-79
2022/05/16 02:28:33;;;;;;;22.40;3.60;;;;;;;8.36;55.95;99427.64;104341;1300;25413;-80
2022/05/16 02:32:13;;;;;;;;;;;;;;;;;;;;;
2022/05/16 02:39:45;;;;;;;;;;;;;;;;;;;;;
2022/05/16 02:42:36;;;;;;;;;;;;;;;;;;;;;
2022/05/16 02:45:59;;;;;;;15.70;3.80;;;;;;;8.08;56.55;99426.91;102825;1309;23103;-81
2022/05/16 02:49:46;;;;;;;22.50;3.80;;;;;;;8.03;56.41;99419.92;102946;1309;25290;-81
2022/05/16 02:53:27;;;;;;;23.10;3.30;;;;;;;8.05;56.51;99420.20;102814;1312;25284;-85
2022/05/16 02:55:53;;;;;;;;;;;;;;;;;;;;;
2022/05/16 02:59:27;;;;;;;17.00;3.50;;;;;;;8.14;56.50;99414.36;103461;1303;25318;-80
2022/05/16 03:02:30;;;;;;;15.90;4.00;;;;;;;8.15;56.38;99417.31;103096;1312;22589;-80
2022/05/16 03:06:26;;;;;;;22.00;3.60;;;;;;;8.17;56.67;99418.64;102920;1312;24343;-85
2022/05/16 03:08:55;;;;;;;11.90;3.40;;;;;;;8.17;56.58;99416.36;102845;1312;23035;-82
2022/05/16 03:12:13;;;;;;;;;;;;;;;;;;;;;
2022/05/16 03:15:31;;;;;;;16.80;4.00;;;;;;;8.15;56.88;99419.66;104164;1291;25438;-80
2022/05/16 03:18:24;;;;;;;14.70;3.80;;;;;;;8.09;57.05;99420.14;104262;1291;25428;-81
2022/05/16 03:21:23;;;;;;;13.70;3.80;;;;;;;8.08;57.02;99426.40;105361;1286;24447;-80
2022/05/16 03:24:11;;;;;;;17.20;3.50;;;;;;;8.03;56.88;99425.97;104990;1285;25486;-80
2022/05/16 03:27:21;;;;;;;17.40;3.90;;;;;;;8.03;57.08;99422.09;105431;1285;22576;-83
2022/05/16 03:30:24;;;;;;;17.80;4.10;;;;;;;8.03;57.38;99419.56;105127;1281;25486;-81
2022/05/16 03:33:28;;;;;;;22.80;4.80;;;;;;;8.09;57.52;99414.09;105606;1281;25328;-82
2022/05/16 03:36:08;;;;;;;21.20;4.60;;;;;;;8.12;57.37;99408.63;105658;1282;22751;-84
2022/05/16 03:42:10;;;;;;;22.80;4.40;;;;;;;8.16;57.37;99403.06;106183;1274;25307;-82
2022/05/16 03:45:15;;;;;;;;;;;;;;;;;;;;;
2022/05/16 03:48:58;;;;;;;20.60;4.10;;;;;;;8.09;57.49;99402.77;106150;1273;22580;-84
2022/05/16 03:51:34;;;;;;;24.00;4.20;;;;;;;8.21;57.65;99397.83;106053;1274;22533;-80
2022/05/16 03:55:13;;;;;;;;;;;;;;;;;;;;;
2022/05/16 03:58:34;;;;;;;;;;;;;;;;;;;;;
2022/05/16 04:05:29;;;;;;;23.60;4.40;;;;;;;8.68;57.20;99400.61;104375;1297;22559;-81
2022/05/16 04:08:28;;;;;;;;;;;;;;;;;;;;;
2022/05/16 04:11:53;;;;;;;19.40;4.10;;;;;;;8.96;57.38;99404.09;104036;1297;22558;-83
2022/05/16 04:15:18;;;;;;;;;;;;;;;;;;;;;
2022/05/16 04:18:46;;;;;;;;;;;;;;;;;;;;;
2022/05/16 04:22:21;;;;;;;12.20;4.20;;;;;;;9.58;56.94;99389.82;103319;1303;22940;-82
2022/05/16 04:26:18;;;;;;;;;;;;;;;;;;;;;
2022/05/16 04:29:25;;;;;;;18.70;4.20;;;;;;;10.24;57.05;99395.93;102367;1314;22601;-81
2022/05/16 04:31:53;;;;;;;22.80;4.40;;;;;;;10.45;57.22;99393.08;102856;1312;22590;-86
2022/05/16 04:34:29;;;;;;;18.70;4.30;;;;;;;10.69;57.30;99392.62;102806;1311;23973;-82
2022/05/16 04:37:14;;;;;;;20.20;4.70;;;;;;;10.92;57.34;99396.20;103154;1308;25332;-80
2022/05/16 04:39:51;;;;;;;16.20;4.30;;;;;;;11.18;57.20;99397.77;103884;1303;24301;-80
2022/05/16 04:42:56;;;;;;;;;;;;;;;;;;;;;
2022/05/16 04:45:53;;;;;;;20.30;4.70;;;;;;;11.75;57.06;99398.80;104061;1296;22785;-84
2022/05/16 04:49:06;;;;;;;17.60;4.20;;;;;;;11.98;57.00;99397.45;104115;1296;22598;-80
2022/05/16 04:52:14;;;;;;;;;;;;;;;;;;;;;
2022/05/16 04:55:23;;;;;;;19.10;4.40;;;;;;;12.56;56.99;99388.95;104477;1290;24943;-81
2022/05/16 04:58:33;;;;;;;;;;;;;;;;;;;;;
2022/05/16 05:02:25;;;;;;;20.80;4.00;;;;;;;13.09;56.71;99387.56;104403;1286;25479;-80
2022/05/16 05:04:57;;;;;;;;;;;;;;;;;;;;;
2022/05/16 05:07:39;;;;;;;10.30;3.60;;;;;;;13.72;56.38;99392.06;105970;1275;22535;-80
2022/05/16 05:16:39;;;;;;;13.80;4.00;;;;;;;14.54;55.79;99389.21;105990;1276;24412;-82
2022/05/16 05:20:14;;;;;;;;;;;;;;;;;;;;;
2022/05/16 05:22:55;;;;;;;20.50;4.40;;;;;;;14.97;55.57;99398.47;106089;1276;24261;-83
2022/05/16 05:25:29;;;;;;;16.80;3.90;;;;;;;15.09;55.62;99397.09;106411;1274;24250;-80
2022/05/16 05:28:09;;;;;;;19.70;4.40;;;;;;;15.24;55.49;99394.58;106153;1274;24266;-80
2022/05/16 05:30:49;;;;;;;16.60;4.30;;;;;;;15.38;55.27;99396.23;106124;1271;22697;-85
2022/05/16 05:34:02;;;;;;;;;;;;;;;;;;;;;
2022/05/16 05:37:10;;;;;;;14.60;4.20;;;;;;;15.68;55.35;99393.11;106397;1274;22550;-86
2022/05/16 05:40:20;;;;;;;14.90;4.10;;;;;;;15.79;55.20;99399.49;106146;1274;25676;-82
2022/05/16 05:43:04;;;;;;;16.80;4.40;;;;;;;15.93;55.21;99399.13;106662;1271;22592;-80
2022/05/16 05:45:56;;;;;;;14.30;4.00;;;;;;;16.11;55.33;99394.98;106221;1274;24233;-79
2022/05/16 05:48:29;;;;;;;11.80;4.30;;;;;;;16.29;55.08;99387.43;106360;1271;25234;-85
2022/05/16 05:51:51;;;;;;;11.10;4.20;;;;;;;16.40;55.01;99388.02;106054;1274;24336;-83
2022/05/16 05:54:37;;;;;;;11.10;4.00;;;;;;;16.56;54.94;99384.69;106205;1274;22541;-85
2022/05/16 05:57:06;;;;;;;13.60;4.40;;;;;;;16.73;54.99;99386.45;106302;1274;25235;-79
2022/05/16 05:59:37;;;;;;;13.40;4.40;;;;;;;16.86;54.67;99387.86;106332;1273;25448;-78
2022/05/16 06:02:11;;;;;;;17.30;4.10;;;;;;;17.02;54.81;99386.69;106303;1274;22762;-83
2022/05/16 06:04:52;;;;;;;11.70;3.90;;;;;;;17.21;54.84;99385.63;106155;1274;22534;-80
2022/05/16 06:07:22;;;;;;;13.00;4.50;;;;;;;17.39;54.79;99384.58;106115;1274;24038;-84
2022/05/16 06:10:16;;;;;;;17.40;4.60;;;;;;;17.55;54.67;99384.19;106246;1274;22590;-86
2022/05/16 06:12:53;;;;;;;15.40;4.50;;;;;;;17.68;54.35;99380.42;106120;1274;25232;-79
2022/05/16 06:15:30;;;;;;;14.30;4.30;;;;;;;17.77;54.22;99386.75;106130;1274;25253;-79
2022/05/16 06:18:04;;;;;;;11.40;3.90;;;;;;;17.81;54.10;99384.02;106022;1274;26482;-81
2022/05/16 06:21:04;;;;;;;12.20;4.20;;;;;;;17.85;54.02;99381.66;106099;1274;25471;-81
2022/05/16 06:23:55;;;;;;;14.80;4.40;;;;;;;17.97;54.08;99381.52;106166;1274;22554;-83
2022/05/16 06:26:42;;;;;;;;;;;;;;;;;;;;;
2022/05/16 06:29:26;;;;;;;;;;;;;;;;;;;;;
2022/05/16 06:32:24;;;;;;;12.90;4.40;;;;;;;18.39;54.03;99381.70;106291;1274;23506;-78
2022/05/16 06:35:08;;;;;;;13.70;3.60;;;;;;;18.61;53.84;99381.16;106308;1274;22624;-86
2022/05/16 06:37:40;;;;;;;8.70;3.90;;;;;;;18.82;53.77;99380.86;106326;1274;24084;-77
2022/05/16 06:40:41;;;;;;;12.80;3.50;;;;;;;19.05;53.71;99374.01;106272;1274;25564;-82
2022/05/16 06:43:39;;;;;;;14.00;3.70;;;;;;;19.31;53.50;99379.04;106614;1271;25550;-80
2022/05/16 06:46:09;;;;;;;9.60;2.80;;;;;;;19.44;53.18;99379.20;106189;1271;25236;-79
2022/05/16 06:49:13;;;;;;;8.90;2.90;;;;;;;19.58;53.24;99376.44;105997;1272;25304;-77
2022/05/16 06:51:43;;;;;;;9.20;3.00;;;;;;;19.72;52.92;99379.95;106027;1271;22684;-85
2022/05/16 06:54:17;;;;;;;8.50;3.10;;;;;;;19.86;52.97;99382.25;106021;1274;23899;-83
2022/05/16 06:57:03;;;;;;;8.70;2.50;;;;;;;20.06;52.94;99378.89;106351;1271;24379;-83
2022/05/16 06:59:30;;;;;;;12.40;2.40;;;;;;;20.25;52.71;99373.33;106296;1271;22544;-84
2022/05/16 07:02:00;;;;;;;10.20;2.70;;;;;;;20.42;52.65;99373.15;106594;1271;25574;-78
2022/05/16 07:04:39;;;;;;;10.80;2.70;;;;;;;20.57;52.53;99375.51;106064;1274;24215;-85
2022/05/16 07:07:10;;;;;;;8.90;2.40;;;;;;;20.70;52.43;99373.33;106315;1274;26472;-78
2022/05/16 07:10:19;;;;;;;12.40;3.00;;;;;;;20.83;52.37;99375.04;106234;1274;22530;-84
2022/05/16 07:12:40;;;;;;;11.60;2.70;;;;;;;20.98;52.15;99372.33;106265;1274;22556;-81
2022/05/16 07:15:08;;;;;;;7.50;2.50;;;;;;;21.08;52.07;99375.16;106365;1274;25503;-84
2022/05/16 07:17:38;;;;;;;7.90;2.30;;;;;;;21.19;52.06;99371.99;106377;1274;22532;-85
2022/05/16 07:20:05;;;;;;;8.50;2.40;;;;;;;21.34;52.03;99372.89;106406;1274;22512;-79
2022/05/16 07:22:39;;;;;;;6.60;2.10;;;;;;;21.46;51.88;99368.73;106468;1274;24379;-84
2022/05/16 07:25:07;;;;;;;9.70;2.60;;;;;;;21.60;51.69;99371.36;106272;1274;24404;-82
2022/05/16 07:30:25;;;;;;;8.20;2.40;;;;;;;21.90;51.36;99369.05;106376;1271;25231;-79
2022/05/16 07:32:52;;;;;;;7.80;2.30;;;;;;;22.00;51.45;99370.95;106204;1271;22546;-86
2022/05/16 07:35:25;;;;;;;5.60;1.90;;;;;;;22.22;51.44;99366.63;106109;1277;22533;-83
2022/05/16 07:37:54;;;;;;;7.50;2.10;;;;;;;22.41;50.98;99367.11;106331;1274;25232;-79
2022/05/16 07:40:31;;;;;;;9.30;2.20;;;;;;;22.50;50.80;99365.78;106476;1271;24075;-79
2022/05/16 07:43:01;;;;;;;6.20;1.90;;;;;;;22.60;50.61;99363.19;106038;1271;22547;-84
2022/05/16 07:45:32;;;;;;;9.60;2.40;;;;;;;22.79;50.67;99360.34;106322;1271;24333;-85
2022/05/16 07:48:03;;;;;;;7.90;2.00;;;;;;;22.98;50.49;99358.45;106167;1271;22720;-85
2022/05/16 07:50:37;;;;;;;7.50;2.10;;;;;;;23.09;50.20;99360.34;106386;1274;22693;-85
2022/05/16 07:53:18;;;;;;;8.10;2.20;;;;;;;23.22;50.36;99361.89;106285;1274;26797;-80
2022/05/16 07:55:53;;;;;;;6.90;2.10;;;;;;;23.28;50.13;99357.74;106236;1274;24246;-80
2022/05/16 07:58:24;;;;;;;8.80;2.20;;;;;;;23.38;50.14;99363.27;106267;1274;24318;-87
2022/05/16 08:00:52;;;;;;;6.60;1.90;;;;;;;23.50;50.01;99364.03;106613;1274;22563;-88
2022/05/16 08:03:21;;;;;;;7.70;1.60;;;;;;;23.58;49.52;99360.14;106216;1274;22576;-81
2022/05/16 08:05:48;;;;;;;7.80;1.60;;;;;;;23.58;49.40;99348.65;106253;1274;22547;-86
2022/05/16 08:11:04;;;;;;;7.50;1.60;;;;;;;23.63;49.19;99358.91;106064;1274;22679;-77
2022/05/16 08:13:32;;;;;;;9.90;2.10;;;;;;;23.65;48.65;99361.24;106242;1274;25448;-77
2022/05/16 08:15:59;;;;;;;11.10;2.00;;;;;;;23.71;49.01;99359.98;106312;1274;25265;-79
2022/05/16 08:18:27;;;;;;;9.40;1.60;;;;;;;23.81;48.85;99358.92;106146;1274;22582;-83
2022/05/16 08:21:02;;;;;;;9.90;2.30;;;;;;;23.89;48.72;99362.78;106298;1274;24202;-84
2022/05/16 08:23:30;;;;;;;7.50;1.60;;;;;;;23.86;48.21;99359.65;106165;1274;22589;-78
2022/05/16 08:26:04;;;;;;;6.60;1.60;;;;;;;23.86;48.19;99360.91;106270;1273;22553;-84
2022/05/16 08:28:32;;;;;;;7.40;1.70;;;;;;;23.97;48.28;99362.20;106180;1274;22544;-82
2022/05/16 08:31:00;;;;;;;7.60;1.50;;;;;;;24.05;48.15;99366.58;106336;1274;22557;-78
2022/05/16 08:33:41;;;;;;;8.20;1.40;;;;;;;24.10;47.97;99369.17;106229;1274;22553;-83
2022/05/16 08:41:52;;;;;;;5.20;1.50;;;;;;;24.50;47.58;99354.70;106514;1273;22543;-78
2022/05/16 08:44:29;;;;;;;6.70;1.30;;;;;;;24.58;47.32;99353.16;106247;1274;25558;-83
2022/05/16 08:47:30;;;;;;;6.30;1.40;;;;;;;24.71;47.50;99353.50;106294;1274;22547;-77
2022/05/16 08:50:01;;;;;;;6.00;1.50;;;;;;;24.92;47.16;99353.17;106320;1274;25251;-78
2022/05/16 08:52:28;;;;;;;6.70;1.50;;;;;;;25.00;46.96;99350.01;106068;1274;22551;-83
2022/05/16 08:55:05;;;;;;;4.10;1.30;;;;;;;25.06;47.03;99351.23;106302;1274;24284;-78
2022/05/16 08:57:38;;;;;;;6.80;1.40;;;;;;;25.16;46.63;99355.61;106298;1274;24274;-82
2022/05/16 09:00:12;;;;;;;8.60;1.50;;;;;;;25.22;46.56;99350.14;106600;1271;25394;-78
2022/05/16 09:02:48;;;;;;;4.30;1.50;;;;;;;25.26;46.45;99347.71;106104;1272;22549;-86
2022/05/16 09:05:18;;;;;;;5.10;1.10;;;;;;;25.24;45.90;99350.37;106355;1271;24209;-77
2022/05/16 09:07:55;;;;;;;5.20;1.30;;;;;;;25.12;45.77;99345.64;106273;1271;22570;-79
2022/05/16 09:10:43;;;;;;;6.50;1.60;;;;;;;25.15;45.93;99341.38;106403;1271;25219;-80
2022/05/16 09:14:04;;;;;;;6.10;1.50;;;;;;;25.32;45.75;99332.56;106313;1271;22589;-82
2022/05/16 09:16:47;;;;;;;17.90;5.90;;;;;;;25.44;45.86;99329.16;105816;1277;22553;-78
2022/05/16 09:20:02;;;;;;;11.40;2.30;;;;;;;25.52;45.66;99318.79;105893;1277;25304;-77
2022/05/16 09:23:05;;;;;;;8.20;1.80;;;;;;;25.47;44.93;99319.13;105172;1284;22640;-81
2022/05/16 09:25:56;;;;;;;9.00;2.50;;;;;;;25.38;45.28;99319.65;104579;1292;22723;-85
2022/05/16 09:28:37;;;;;;;81.00;46.80;;;;;;;25.43;44.78;99318.80;104918;1290;25267;-79
2022/05/16 09:31:20;;;;;;;17.10;7.60;;;;;;;25.44;44.67;99320.86;104707;1291;26829;-78
2022/05/16 09:33:53;;;;;;;7.60;3.00;;;;;;;25.50;44.65;99326.77;104769;1290;22735;-82
2022/05/16 09:36:24;;;;;;;10.80;2.80;;;;;;;25.44;44.25;99330.63;104697;1291;24290;-85
2022/05/16 09:38:51;;;;;;;9.40;3.70;;;;;;;25.43;44.44;99330.29;104923;1290;22559;-83
2022/05/16 09:41:35;;;;;;;6.60;1.70;;;;;;;25.61;44.61;99324.98;104508;1291;22554;-83
2022/05/16 09:44:27;;;;;;;7.90;1.60;;;;;;;25.79;44.30;99323.02;104556;1291;22555;-78
2022/05/16 09:47:26;;;;;;;7.60;1.70;;;;;;;25.88;43.91;99326.84;104500;1291;23484;-78
2022/05/16 09:50:02;;;;;;;6.00;2.10;;;;;;;25.84;43.58;99324.13;104694;1290;25357;-81
2022/05/16 09:52:45;;;;;;;10.70;2.50;;;;;;;25.79;43.86;99324.80;105258;1285;24518;-84
2022/05/16 09:55:24;;;;;;;8.00;2.30;;;;;;;25.95;43.65;99326.55;105289;1285;25322;-78
2022/05/16 09:58:03;;;;;;;8.00;1.30;;;;;;;26.01;43.08;99325.55;105129;1285;23004;-83
2022/05/16 10:00:39;;;;;;;7.30;1.40;;;;;;;26.11;43.49;99323.16;106495;1271;22587;-84
2022/05/16 10:03:15;;;;;;;9.30;1.90;;;;;;;26.34;43.29;99324.17;106288;1274;22544;-81
2022/05/16 10:05:57;;;;;;;5.50;1.10;;;;;;;26.28;42.13;99322.55;106079;1275;22852;-85
2022/05/16 10:08:41;;;;;;;9.10;2.40;;;;;;;26.18;42.73;99315.86;106587;1274;22541;-78
2022/05/16 10:11:15;;;;;;;5.70;1.20;;;;;;;26.27;42.71;99314.51;106328;1274;22796;-79
2022/05/16 10:13:42;;;;;;;6.40;1.50;;;;;;;26.37;42.61;99312.52;106050;1275;22551;-84
2022/05/16 10:16:12;;;;;;;5.90;1.60;;;;;;;26.45;42.44;99311.98;106229;1274;22924;-83
2022/05/16 10:19:19;;;;;;;6.30;1.40;;;;;;;26.56;42.53;99310.04;106351;1274;22635;-80
2022/05/16 10:21:55;;;;;;;11.20;1.70;;;;;;;26.73;42.09;99306.45;105819;1280;25044;-81
2022/05/16 10:24:25;;;;;;;6.70;1.40;;;;;;;26.62;41.77;99303.27;105939;1280;25667;-80
2022/05/16 10:26:59;;;;;;;6.10;1.60;;;;;;;26.59;41.89;99300.40;105581;1280;23144;-79
2022/05/16 10:29:31;;;;;;;6.70;1.60;;;;;;;26.60;41.67;99305.88;105485;1281;24419;-79
2022/05/16 10:35:04;;;;;;;7.70;1.60;;;;;;;26.70;41.70;99294.00;105821;1280;22752;-82
2022/05/16 10:37:40;;;;;;;6.70;1.40;;;;;;;26.80;41.49;99293.80;105803;1282;25351;-78
2022/05/16 10:40:10;;;;;;;6.30;1.20;;;;;;;26.80;40.87;99292.39;105725;1281;24276;-79
2022/05/16 10:43:35;;;;;;;8.10;1.50;;;;;;;26.70;40.86;99288.77;105748;1280;24514;-84
2022/05/16 10:46:10;;;;;;;5.50;1.20;;;;;;;26.50;41.05;99287.48;105906;1280;25541;-79
2022/05/16 10:48:58;;;;;;;4.60;1.10;;;;;;;26.54;40.84;99286.73;105729;1281;25250;-78
2022/05/16 10:51:44;;;;;;;8.10;1.80;;;;;;;26.59;40.76;99285.05;105755;1281;22652;-83
2022/05/16 10:54:16;;;;;;;8.20;1.70;;;;;;;26.66;40.79;99283.16;105825;1280;22561;-82
2022/05/16 10:57:04;;;;;;;6.00;1.30;;;;;;;26.84;40.76;99285.29;106165;1274;24234;-84
2022/05/16 10:59:53;;;;;;;8.30;1.50;;;;;;;26.98;40.46;99280.53;106503;1274;22703;-82
2022/05/16 11:02:47;;;;;;;6.80;1.20;;;;;;;27.06;40.78;99285.98;106298;1274;22793;-80
2022/05/16 11:05:59;;;;;;;9.40;1.20;;;;;;;27.11;40.77;99285.48;106324;1274;25317;-79
2022/05/16 11:08:49;;;;;;;6.30;1.60;;;;;;;27.12;40.24;99281.77;105867;1281;22575;-80
2022/05/16 11:11:54;;;;;;;5.10;1.30;;;;;;;27.07;39.88;99279.07;105813;1281;23907;-77
2022/05/16 11:15:08;;;;;;;5.20;1.30;;;;;;;27.01;40.22;99274.95;105813;1278;25503;-84
2022/05/16 11:18:05;;;;;;;8.50;1.70;;;;;;;27.06;40.18;99279.46;105614;1284;22567;-77
2022/05/16 11:20:56;;;;;;;5.90;1.50;;;;;;;27.09;40.09;99279.16;105481;1284;22810;-81
2022/05/16 11:23:45;;;;;;;6.90;1.40;;;;;;;27.02;39.07;99278.42;105153;1284;22700;-84
2022/05/16 11:26:29;;;;;;;7.30;1.20;;;;;;;26.78;39.11;99275.38;105558;1284;24296;-82
2022/05/16 11:29:23;;;;;;;7.60;1.40;;;;;;;26.48;39.08;99271.64;105478;1284;22514;-79
2022/05/16 11:32:06;;;;;;;7.10;1.60;;;;;;;26.43;39.15;99267.58;105469;1284;24308;-84
2022/05/16 11:34:40;;;;;;;7.40;1.40;;;;;;;26.36;39.48;99267.42;105189;1285;25476;-77
2022/05/16 11:37:29;;;;;;;6.50;1.30;;;;;;;26.51;39.69;99261.56;105341;1284;24224;-79
2022/05/16 11:40:08;;;;;;;5.80;1.60;;;;;;;26.57;39.35;99258.04;105123;1287;22775;-77
2022/05/16 11:42:41;;;;;;;7.50;1.50;;;;;;;26.57;39.54;99257.11;105108;1286;24351;-78
2022/05/16 11:45:16;;;;;;;8.40;1.70;;;;;;;26.71;39.53;99249.48;105627;1281;25527;-79
2022/05/16 11:47:52;;;;;;;6.60;1.40;;;;;;;26.87;39.31;99246.00;105760;1277;22557;-82
2022/05/16 11:50:42;;;;;;;6.60;1.40;;;;;;;27.00;39.08;99244.77;105889;1278;25348;-77
2022/05/16 11:53:21;;;;;;;8.60;2.00;;;;;;;27.07;39.05;99232.19;105755;1274;22728;-81
2022/05/16 12:01:35;;;;;;;7.00;1.60;;;;;;;27.28;38.93;99226.00;106253;1274;22532;-84
2022/05/16 12:04:15;;;;;;;7.00;1.40;;;;;;;27.27;38.72;99220.00;106168;1272;24223;-77
2022/05/16 12:06:59;;;;;;;6.00;1.50;;;;;;;27.18;38.11;99216.95;106536;1272;25303;-78
2022/05/16 12:09:31;;;;;;;7.10;1.40;;;;;;;27.00;38.31;99217.04;106351;1274;25225;-81
2022/05/16 12:12:12;;;;;;;6.30;1.50;;;;;;;26.91;37.96;99214.93;106237;1275;22543;-77
2022/05/16 12:14:42;;;;;;;6.90;1.30;;;;;;;26.66;38.04;99218.98;106202;1274;22545;-80
2022/05/16 12:17:30;;;;;;;6.00;1.40;;;;;;;26.72;38.15;99219.45;106252;1271;24249;-78
2022/05/16 12:19:57;;;;;;;5.10;1.40;;;;;;;26.78;38.13;99219.73;106293;1271;22543;-84
2022/05/16 12:22:50;;;;;;;5.20;1.30;;;;;;;26.72;38.07;99217.39;106364;1271;25373;-79
2022/05/16 12:25:26;;;;;;;8.20;1.40;;;;;;;26.59;37.80;99213.50;106406;1271;22545;-82
2022/05/16 12:28:11;;;;;;;6.80;1.50;;;;;;;26.40;37.76;99209.84;106418;1271;25333;-76
2022/05/16 12:30:39;;;;;;;7.50;1.70;;;;;;;26.47;38.12;99203.13;106335;1271;25492;-78
2022/05/16 12:33:55;;;;;;;6.70;1.70;;;;;;;26.51;37.69;99199.13;106292;1271;22598;-78
2022/05/16 12:36:23;;;;;;;4.50;1.20;;;;;;;26.38;37.42;99195.77;106256;1271;22599;-84
2022/05/16 12:39:17;;;;;;;6.70;1.50;;;;;;;26.22;37.53;99190.39;106397;1271;25241;-77
2022/05/16 12:42:22;;;;;;;8.50;1.60;;;;;;;26.22;37.67;99190.27;106367;1271;24233;-83
2022/05/16 12:44:53;;;;;;;5.60;1.40;;;;;;;26.22;37.39;99182.98;106287;1271;25576;-78
2022/05/16 12:47:58;;;;;;;7.30;1.20;;;;;;;26.09;37.53;99183.23;106366;1271;22801;-79
2022/05/16 12:50:53;;;;;;;8.30;1.40;;;;;;;26.10;37.88;99184.94;106595;1271;24264;-78
2022/05/16 12:53:57;;;;;;;5.50;1.50;;;;;;;26.11;36.97;99185.30;105863;1277;22551;-81
2022/05/16 12:56:48;;;;;;;7.20;1.30;;;;;;;25.93;37.24;99178.91;105948;1271;22547;-82
2022/05/16 12:59:47;;;;;;;5.10;1.50;;;;;;;26.00;37.17;99180.27;106032;1274;22532;-82
2022/05/16 13:02:29;;;;;;;6.70;1.60;;;;;;;26.01;37.08;99177.24;105634;1281;22558;-80
2022/05/16 13:05:08;;;;;;;5.30;1.50;;;;;;;25.93;36.88;99172.73;105614;1281;22582;-80
2022/05/16 13:08:16;;;;;;;9.10;1.20;;;;;;;25.95;37.42;99169.95;106041;1279;23917;-79
2022/05/16 13:11:21;;;;;;;6.60;1.50;;;;;;;26.08;37.16;99165.73;105644;1281;22541;-84
2022/05/16 13:14:06;;;;;;;5.60;1.20;;;;;;;26.09;37.04;99163.30;105664;1280;22596;-83
2022/05/16 13:16:55;;;;;;;6.20;1.30;;;;;;;26.07;37.05;99161.05;105633;1280;25582;-84
2022/05/16 13:19:29;;;;;;;4.70;1.30;;;;;;;26.08;36.78;99152.68;105576;1280;22731;-77
2022/05/16 13:22:12;;;;;;;5.50;1.40;;;;;;;26.02;36.91;99146.31;105675;1281;22554;-83
2022/05/16 13:24:39;;;;;;;5.30;1.30;;;;;;;26.02;36.75;99144.75;105666;1281;24262;-80
2022/05/16 13:30:11;;;;;;;6.90;1.40;;;;;;;26.04;36.61;99139.67;105709;1279;25600;-79
2022/05/16 13:32:39;;;;;;;5.90;1.40;;;;;;;25.98;36.50;99139.10;105774;1280;22822;-77
2022/05/16 13:35:11;;;;;;;5.90;1.30;;;;;;;25.94;36.71;99140.17;105618;1281;25100;-78
2022/05/16 13:37:55;;;;;;;6.50;1.80;;;;;;;26.05;37.04;99138.20;105772;1280;25350;-76
2022/05/16 13:40:33;;;;;;;7.60;1.60;;;;;;;26.15;36.80;99139.43;106224;1271;23906;-81
2022/05/16 13:43:14;;;;;;;6.50;1.20;;;;;;;26.18;36.64;99136.22;106093;1272;25547;-82
2022/05/16 13:45:45;;;;;;;7.50;1.40;;;;;;;26.19;36.69;99135.38;106401;1271;22545;-80
2022/05/16 13:48:17;;;;;;;5.40;1.10;;;;;;;26.18;36.55;99133.70;106174;1272;24230;-80
2022/05/16 13:50:53;;;;;;;11.00;3.90;;;;;;;26.20;36.29;99128.39;106247;1271;24431;-79
2022/05/16 13:53:26;;;;;;;7.40;2.20;;;;;;;26.14;36.33;99128.72;106143;1271;22604;-77
2022/05/16 13:55:56;;;;;;;8.20;1.50;;;;;;;26.16;36.59;99126.66;106191;1271;22609;-77
2022/05/16 13:58:27;;;;;;;5.90;1.50;;;;;;;26.23;36.60;99125.04;106189;1271;25690;-77
2022/05/16 14:01:33;;;;;;;7.80;2.20;;;;;;;26.27;36.61;99128.15;106273;1271;25286;-79
2022/05/16 14:04:12;;;;;;;5.70;1.10;;;;;;;26.32;36.45;99125.88;106631;1272;25286;-76
2022/05/16 14:06:47;;;;;;;5.50;1.40;;;;;;;26.40;36.48;99122.27;106408;1271;24027;-78
2022/05/16 14:09:33;;;;;;;6.70;1.40;;;;;;;26.50;36.36;99120.14;106416;1271;25479;-77
2022/05/16 14:12:09;;;;;;;6.70;1.40;;;;;;;26.56;36.14;99114.65;106517;1271;23211;-78
2022/05/16 14:14:38;;;;;;;6.00;1.80;;;;;;;26.55;35.94;99111.33;106322;1271;25464;-79
2022/05/16 14:17:08;;;;;;;9.30;2.10;;;;;;;26.54;36.08;99111.37;106385;1271;22564;-80
2022/05/16 14:19:53;;;;;;;8.20;1.80;;;;;;;26.66;36.09;99109.38;106333;1271;22649;-78
2022/05/16 14:22:35;;;;;;;8.40;1.40;;;;;;;26.72;35.45;99107.30;106435;1271;22618;-79
2022/05/16 14:25:31;;;;;;;10.10;2.10;;;;;;;26.57;35.79;99099.44;106088;1274;22634;-84
2022/05/16 14:28:23;;;;;;;9.70;1.40;;;;;;;26.74;36.08;99094.39;106952;1271;22567;-78
2022/05/16 14:31:16;;;;;;;;;;;;;;;;;;;;;
2022/05/16 14:34:19;;;;;;;7.50;1.70;;;;;;;26.84;35.61;99095.17;106413;1274;24296;-79
2022/05/16 14:37:16;;;;;;;5.80;1.30;;;;;;;26.94;35.65;99087.31;106434;1274;22744;-78
2022/05/16 14:40:20;;;;;;;8.80;1.40;;;;;;;27.02;35.60;99083.86;106190;1274;23171;-79
2022/05/16 14:43:31;;;;;;;7.90;1.20;;;;;;;26.95;35.44;99081.73;106385;1274;22528;-78
2022/05/16 14:46:51;;;;;;;7.00;1.40;;;;;;;26.87;35.52;99081.00;104519;1274;22539;-81
2022/05/16 14:49:24;;;;;;;5.30;1.30;;;;;;;26.83;35.39;99085.86;106204;1274;22711;-78
2022/05/16 14:51:51;;;;;;;5.40;1.10;;;;;;;26.85;35.53;99082.14;106234;1271;22544;-82
2022/05/16 14:54:32;;;;;;;7.20;1.40;;;;;;;26.61;35.62;99077.77;106298;1274;22611;-77
2022/05/16 14:57:03;;;;;;;7.30;1.40;;;;;;;26.24;35.63;99080.89;106251;1271;25225;-77
2022/05/16 14:59:45;;;;;;;8.30;2.10;;;;;;;25.98;35.62;99084.58;106298;1274;23157;-81